Galapagar, Spain
Current Conditions -  °F | °C
As of 9:16 AM on Wednesday 26 Nov 2014 (Local Time) from LECV Reporting Station
Moderate Fog Moderate Fog  
Wind Chill: 44°   Ceiling: 200
Heat Index: 46°   Visibility: 1.2mi
Dew Point: 46°   Wind: 6mph
Humidity: 100%   Direction: 230°SW
Pressure: 29.94"   Gusts: NA
Location:  40.58°N, 4°W
Report Text: LECV 260816Z 23005KT 2000 VCFG BKN002 08/08 Q1014
Loading
Personal Weather Stations






























Interactive Weather Map New forecast layout! Learn more

10-Day Weather Forecast

Advertisements
Track Severe Weather on mobile